createdAt,value
2023-01-17T00:00:33.403Z,39.95
2023-01-17T00:02:59.975Z,40.09
2023-01-17T00:09:27.672Z,40.25
2023-01-17T00:11:54.248Z,40.26
2023-01-17T00:14:20.773Z,40.20
2023-01-17T00:16:47.361Z,40.21
2023-01-17T00:19:38.878Z,40.11
2023-01-17T00:22:38.538Z,40.04
2023-01-17T00:25:24.041Z,40.37
2023-01-17T00:27:50.597Z,40.04
2023-01-17T00:30:17.126Z,40.22
2023-01-17T00:32:43.592Z,40.25
2023-01-17T00:35:10.027Z,40.29
2023-01-17T00:37:36.496Z,40.20
2023-01-17T00:40:03.063Z,40.30
2023-01-17T00:42:29.524Z,40.26
2023-01-17T00:45:14.573Z,40.23
2023-01-17T00:48:00.045Z,40.32
2023-01-17T00:50:45.020Z,40.38
2023-01-17T00:53:30.373Z,40.46
2023-01-17T00:56:19.819Z,40.35
2023-01-17T01:14:15.144Z,40.59
2023-01-17T01:17:00.376Z,40.31
2023-01-17T01:19:45.938Z,40.47
2023-01-17T01:22:31.427Z,40.31
2023-01-17T01:32:44.469Z,40.60
2023-01-17T01:35:11.072Z,40.49
2023-01-17T01:37:37.595Z,40.46
2023-01-17T01:40:04.730Z,40.60
2023-01-17T01:42:31.286Z,40.53
2023-01-17T01:44:57.764Z,40.44
2023-01-17T01:47:30.487Z,40.43
2023-01-17T01:49:59.160Z,40.53
2023-01-17T01:52:29.828Z,40.55
2023-01-17T01:55:01.113Z,40.65
2023-01-17T01:57:32.299Z,40.47
2023-01-17T02:00:04.225Z,40.53
2023-01-17T02:02:31.817Z,40.51
2023-01-17T02:04:59.821Z,40.43
2023-01-17T02:07:33.246Z,40.46
2023-01-17T02:10:00.764Z,40.34
2023-01-17T02:12:27.606Z,40.50
2023-01-17T02:14:54.113Z,40.42
2023-01-17T02:17:39.612Z,40.53
2023-01-17T02:20:27.685Z,40.61
2023-01-17T02:23:06.557Z,40.57
2023-01-17T02:25:45.155Z,40.41
2023-01-17T02:28:33.740Z,40.41
2023-01-17T02:31:11.435Z,40.46
2023-01-17T02:34:06.300Z,40.49
2023-01-17T02:36:39.477Z,40.51
2023-01-17T02:39:17.220Z,40.62
2023-01-17T02:41:48.996Z,40.52
2023-01-17T02:44:18.810Z,40.55
2023-01-17T02:46:56.363Z,40.56
2023-01-17T02:49:28.359Z,40.55
2023-01-17T02:52:08.511Z,40.50
2023-01-17T02:54:47.765Z,40.65
2023-01-17T02:57:49.503Z,40.62
2023-01-17T03:00:27.452Z,40.45
2023-01-17T03:03:09.295Z,40.46
2023-01-17T03:05:48.979Z,40.67
2023-01-17T03:08:16.825Z,40.67
2023-01-17T03:10:44.485Z,40.73
2023-01-17T03:13:11.117Z,40.61
2023-01-17T03:15:39.983Z,40.65
2023-01-17T03:18:14.078Z,40.87
2023-01-17T03:20:40.796Z,40.62
2023-01-17T03:23:07.564Z,40.73
2023-01-17T03:25:34.237Z,40.82
2023-01-17T03:28:00.758Z,40.67
2023-01-17T03:30:27.436Z,40.67
2023-01-17T03:32:54.033Z,40.74
2023-01-17T03:35:20.625Z,40.68
2023-01-17T03:37:47.455Z,40.72
2023-01-17T03:40:14.205Z,40.74
2023-01-17T03:42:40.929Z,40.71
2023-01-17T03:45:08.137Z,40.67
2023-01-17T03:47:35.985Z,40.95
2023-01-17T03:50:03.687Z,40.73
2023-01-17T03:52:30.452Z,40.73
2023-01-17T03:54:57.261Z,40.73
2023-01-17T03:57:23.831Z,40.68
2023-01-17T03:59:50.417Z,40.72
2023-01-17T04:02:17.467Z,40.79
2023-01-17T04:04:44.024Z,40.66
2023-01-17T04:07:10.613Z,40.70
2023-01-17T04:09:37.192Z,40.55
2023-01-17T04:12:04.036Z,40.77
2023-01-17T04:14:30.685Z,40.85
2023-01-17T04:16:57.424Z,40.63
2023-01-17T04:19:24.115Z,40.68
2023-01-17T04:21:50.813Z,40.68
2023-01-17T04:24:18.113Z,40.76
2023-01-17T04:26:44.833Z,40.74
2023-01-17T04:29:11.557Z,40.65
2023-01-17T04:31:38.108Z,40.78
2023-01-17T04:34:04.599Z,40.61
2023-01-17T04:36:31.186Z,40.67
2023-01-17T04:38:57.677Z,40.66
2023-01-17T04:41:24.232Z,40.75
2023-01-17T04:43:50.975Z,40.74
2023-01-17T04:46:17.667Z,40.77
2023-01-17T04:49:27.876Z,40.79
2023-01-17T04:51:54.324Z,40.75
2023-01-17T04:54:20.779Z,40.65
2023-01-17T04:56:47.250Z,40.67
2023-01-17T04:59:13.805Z,40.72
2023-01-17T05:01:40.413Z,40.65
2023-01-17T05:04:07.002Z,40.49
2023-01-17T05:06:33.641Z,40.30
2023-01-17T05:09:00.185Z,40.23
2023-01-17T05:11:26.845Z,40.33
2023-01-17T05:13:53.321Z,40.17
2023-01-17T05:16:19.805Z,40.14
2023-01-17T05:18:46.437Z,40.03
2023-01-17T05:21:12.916Z,39.94
2023-01-17T05:23:40.596Z,39.97
2023-01-17T05:26:07.109Z,39.73
2023-01-17T05:28:34.005Z,39.90
2023-01-17T05:31:00.672Z,39.76
2023-01-17T05:33:27.238Z,39.57
2023-01-17T05:35:53.751Z,39.77
2023-01-17T05:38:20.397Z,39.71
2023-01-17T05:40:46.870Z,39.67
2023-01-17T05:43:13.450Z,39.62
2023-01-17T05:45:39.928Z,39.70
2023-01-17T05:48:06.745Z,39.71
2023-01-17T05:50:38.087Z,39.80
2023-01-17T05:53:08.416Z,39.70
2023-01-17T05:55:36.210Z,39.72
2023-01-17T05:58:03.846Z,39.60
2023-01-17T06:00:31.800Z,39.56
2023-01-17T06:02:59.996Z,39.74
2023-01-17T06:05:28.367Z,39.49
2023-01-17T06:07:54.956Z,39.61
2023-01-17T06:10:22.261Z,39.70
2023-01-17T06:12:49.589Z,39.89
2023-01-17T06:15:18.122Z,39.81
2023-01-17T06:17:45.062Z,39.64
2023-01-17T06:20:13.555Z,39.62
2023-01-17T06:22:40.138Z,39.47
2023-01-17T06:25:07.423Z,39.81
2023-01-17T06:27:34.290Z,39.51
2023-01-17T06:30:00.822Z,39.55
2023-01-17T06:32:27.371Z,39.43
2023-01-17T06:34:54.057Z,39.51
2023-01-17T06:37:20.653Z,39.45
2023-01-17T06:39:47.298Z,39.41
2023-01-17T06:42:13.764Z,39.43
2023-01-17T06:44:40.353Z,39.43
2023-01-17T06:47:07.063Z,39.40
2023-01-17T06:49:33.612Z,39.40
2023-01-17T06:52:00.119Z,39.48
2023-01-17T06:54:27.199Z,39.43
2023-01-17T06:56:54.391Z,39.21
2023-01-17T06:59:21.324Z,39.33
2023-01-17T07:01:47.862Z,39.32
2023-01-17T07:04:14.415Z,39.29
2023-01-17T07:06:40.891Z,39.29
2023-01-17T07:09:07.711Z,39.25
2023-01-17T07:11:34.220Z,39.35
2023-01-17T07:14:00.745Z,39.35
2023-01-17T07:16:27.336Z,39.19
2023-01-17T07:18:54.814Z,39.08
2023-01-17T07:21:21.402Z,39.01
2023-01-17T07:23:48.727Z,39.17
2023-01-17T07:26:17.258Z,38.96
2023-01-17T07:28:44.097Z,38.92
2023-01-17T07:31:10.712Z,39.14
2023-01-17T07:33:37.752Z,39.10
2023-01-17T07:36:08.483Z,38.93
2023-01-17T07:38:35.378Z,38.99
2023-01-17T07:41:02.182Z,38.93
2023-01-17T07:43:28.731Z,39.04
2023-01-17T07:45:55.680Z,39.12
2023-01-17T07:48:24.452Z,39.21
2023-01-17T07:50:55.500Z,39.20
2023-01-17T07:53:27.394Z,39.16
2023-01-17T07:55:54.490Z,39.08
2023-01-17T07:58:21.967Z,39.00
2023-01-17T08:00:48.573Z,38.84
2023-01-17T08:03:17.593Z,38.87
2023-01-17T08:05:53.596Z,38.94
2023-01-17T08:08:20.469Z,38.86
2023-01-17T08:10:47.307Z,38.86
2023-01-17T08:13:13.917Z,38.99
2023-01-17T08:15:40.739Z,39.02
2023-01-17T08:18:07.223Z,38.99
2023-01-17T08:20:33.775Z,38.90
2023-01-17T08:23:00.408Z,39.02
2023-01-17T08:25:27.484Z,39.09
2023-01-17T08:27:57.899Z,39.13
2023-01-17T08:30:25.822Z,39.14
2023-01-17T08:32:52.536Z,39.22
2023-01-17T08:35:22.448Z,38.92
2023-01-17T08:37:53.338Z,39.05
2023-01-17T08:40:20.101Z,38.90
2023-01-17T08:42:57.613Z,39.03
2023-01-17T08:45:24.417Z,39.08
2023-01-17T08:47:51.439Z,39.10
2023-01-17T08:50:20.691Z,38.92
2023-01-17T08:52:51.006Z,39.13
2023-01-17T08:55:17.834Z,38.95
2023-01-17T08:57:44.519Z,38.98
2023-01-17T09:00:11.790Z,39.15
2023-01-17T09:02:38.312Z,39.08
2023-01-17T09:05:05.699Z,39.19
2023-01-17T09:07:32.525Z,39.15
2023-01-17T09:09:59.068Z,39.07
2023-01-17T09:12:25.868Z,39.13
2023-01-17T09:14:52.511Z,39.15
2023-01-17T09:17:18.997Z,38.87
2023-01-17T09:19:47.612Z,38.79
2023-01-17T09:22:15.075Z,38.99
2023-01-17T09:24:42.163Z,39.14
2023-01-17T09:27:08.904Z,39.00
2023-01-17T09:29:35.418Z,39.20
2023-01-17T09:32:02.156Z,38.94
2023-01-17T09:34:28.762Z,38.92
2023-01-17T09:36:56.947Z,38.86
2023-01-17T09:39:23.502Z,38.74
2023-01-17T09:42:17.333Z,38.89
2023-01-17T09:44:54.597Z,38.88
2023-01-17T09:47:51.127Z,38.75
2023-01-17T09:50:29.650Z,38.74
2023-01-17T09:53:01.354Z,38.95
2023-01-17T09:55:36.913Z,38.93
2023-01-17T09:58:10.622Z,39.96
2023-01-17T10:00:55.288Z,40.29
2023-01-17T10:03:40.265Z,41.79
2023-01-17T10:06:15.583Z,41.76
2023-01-17T10:08:48.059Z,41.86
2023-01-17T10:11:20.533Z,42.36
2023-01-17T10:14:25.124Z,43.33
2023-01-17T10:16:51.582Z,44.42
2023-01-17T10:19:55.897Z,43.66
2023-01-17T10:22:31.669Z,42.83
2023-01-17T10:25:07.243Z,42.45
2023-01-17T10:27:39.181Z,41.94
2023-01-17T10:30:21.265Z,41.62
2023-01-17T10:32:49.661Z,45.16
2023-01-17T10:35:28.645Z,44.18
2023-01-17T10:37:58.379Z,43.45
2023-01-17T10:40:45.394Z,43.08
2023-01-17T10:43:22.569Z,44.04
2023-01-17T10:45:54.155Z,44.29
2023-01-17T10:48:41.492Z,44.42
2023-01-17T10:51:17.082Z,44.39
2023-01-17T10:54:17.660Z,44.81
2023-01-17T10:56:44.559Z,45.03
2023-01-17T10:59:23.432Z,44.78
2023-01-17T11:01:51.475Z,44.63
2023-01-17T11:04:20.781Z,44.71
2023-01-17T11:07:08.216Z,44.54
2023-01-17T11:09:49.824Z,44.23
2023-01-17T11:12:41.535Z,44.00
2023-01-17T11:15:10.715Z,43.75
2023-01-17T11:17:42.283Z,43.63
2023-01-17T11:20:28.283Z,43.16
2023-01-17T11:23:29.455Z,43.04
2023-01-17T11:26:02.720Z,43.05
2023-01-17T11:28:35.125Z,42.84
2023-01-17T11:31:03.717Z,42.82
2023-01-17T11:33:54.047Z,42.48
2023-01-17T11:36:28.893Z,42.59
2023-01-17T11:39:27.637Z,42.67
2023-01-17T11:41:54.569Z,42.33
2023-01-17T11:44:23.748Z,41.94
2023-01-17T11:47:13.505Z,41.51
2023-01-17T11:49:42.197Z,41.45
2023-01-17T11:52:18.086Z,41.24
2023-01-17T11:54:47.002Z,40.85
2023-01-17T11:57:35.064Z,40.35
2023-01-17T12:00:24.093Z,40.42
2023-01-17T12:03:30.587Z,40.14
2023-01-17T12:06:06.918Z,40.08
2023-01-17T12:09:22.922Z,39.76
2023-01-17T12:12:26.293Z,39.98
2023-01-17T12:14:52.997Z,39.83
2023-01-17T12:17:35.103Z,39.78
2023-01-17T12:20:10.190Z,39.72
2023-01-17T12:22:47.955Z,39.88
2023-01-17T12:25:20.551Z,39.84
2023-01-17T12:28:11.311Z,40.02
2023-01-17T12:30:51.343Z,40.12
2023-01-17T12:33:26.766Z,40.06
2023-01-17T12:35:57.816Z,39.93
2023-01-17T12:38:33.225Z,39.97
2023-01-17T12:41:10.228Z,39.91
2023-01-17T12:43:40.278Z,39.95
2023-01-17T12:46:17.033Z,39.85
2023-01-17T12:48:44.933Z,39.80
2023-01-17T12:51:27.724Z,39.89
2023-01-17T12:54:19.399Z,39.94
2023-01-17T12:57:02.493Z,39.85
2023-01-17T12:59:53.579Z,39.91
2023-01-17T13:02:41.547Z,39.78
2023-01-17T13:05:34.486Z,39.78
2023-01-17T13:08:04.076Z,39.88
2023-01-17T13:10:38.448Z,39.77
2023-01-17T13:13:16.541Z,39.72
2023-01-17T13:15:43.630Z,39.76
2023-01-17T13:18:23.061Z,39.55
2023-01-17T13:20:56.633Z,39.69
2023-01-17T13:23:31.265Z,39.61
2023-01-17T13:26:00.288Z,39.72
2023-01-17T13:29:08.452Z,39.64
2023-01-17T13:31:40.953Z,39.61
2023-01-17T13:34:07.435Z,39.57
2023-01-17T13:36:52.330Z,39.51
2023-01-17T13:39:34.092Z,39.51
2023-01-17T13:42:49.031Z,39.46
2023-01-17T13:45:22.062Z,39.32
2023-01-17T13:47:48.732Z,39.25
2023-01-17T13:50:36.836Z,39.31
2023-01-17T13:53:34.438Z,39.22
2023-01-17T13:56:18.989Z,39.34
2023-01-17T13:59:02.793Z,39.15
2023-01-17T14:01:34.757Z,39.18
2023-01-17T14:04:03.606Z,39.24
2023-01-17T14:06:33.053Z,39.07
2023-01-17T14:09:08.563Z,39.17
2023-01-17T14:11:59.860Z,39.00
2023-01-17T14:14:35.548Z,38.99
2023-01-17T14:17:20.597Z,39.08
2023-01-17T14:19:49.784Z,38.92
2023-01-17T14:22:19.133Z,38.92
2023-01-17T14:25:17.554Z,38.99
2023-01-17T14:27:54.901Z,38.83
2023-01-17T14:30:24.649Z,38.72
2023-01-17T14:33:06.009Z,38.79
2023-01-17T14:35:45.757Z,38.76
2023-01-17T14:38:28.628Z,38.79
2023-01-17T14:41:03.361Z,38.60
2023-01-17T14:43:33.271Z,38.68
2023-01-17T14:46:02.966Z,38.80
2023-01-17T14:48:30.127Z,38.67
2023-01-17T14:51:00.124Z,38.67
2023-01-17T14:53:30.615Z,38.66
2023-01-17T14:56:12.643Z,38.66
2023-01-17T14:58:42.457Z,38.66
2023-01-17T15:01:14.679Z,38.68
2023-01-17T15:03:49.363Z,38.46
2023-01-17T15:06:22.825Z,38.61
2023-01-17T15:08:54.124Z,38.44
2023-01-17T15:11:26.775Z,38.56
2023-01-17T15:13:57.395Z,38.50
2023-01-17T15:16:35.352Z,38.58
2023-01-17T15:19:03.418Z,38.51
2023-01-17T15:21:32.969Z,38.45
2023-01-17T15:24:03.746Z,38.53
2023-01-17T15:26:34.568Z,38.31
2023-01-17T15:29:05.899Z,38.33
2023-01-17T15:31:59.353Z,38.48
2023-01-17T15:34:30.314Z,38.34
2023-01-17T15:37:00.213Z,38.31
2023-01-17T15:39:30.219Z,38.25
2023-01-17T15:42:03.642Z,38.15
2023-01-17T15:44:49.424Z,38.10
2023-01-17T15:47:25.110Z,38.21
2023-01-17T15:49:52.722Z,38.05
2023-01-17T15:52:20.541Z,37.87
2023-01-17T15:54:52.794Z,38.20
2023-01-17T15:57:22.513Z,38.08
2023-01-17T16:00:09.628Z,38.14
2023-01-17T16:02:43.778Z,38.06
2023-01-17T16:05:22.774Z,38.25
2023-01-17T16:07:53.148Z,38.18
2023-01-17T16:10:22.372Z,38.21
2023-01-17T16:12:51.780Z,38.24
2023-01-17T16:15:20.443Z,38.28
2023-01-17T16:17:50.041Z,38.19
2023-01-17T16:20:20.203Z,38.22
2023-01-17T16:22:47.493Z,38.20
2023-01-17T16:25:16.906Z,38.26
2023-01-17T16:27:44.072Z,38.25
2023-01-17T16:30:15.187Z,38.34
2023-01-17T16:32:43.082Z,38.36
2023-01-17T16:35:19.286Z,38.22
2023-01-17T16:37:54.988Z,38.30
2023-01-17T16:40:23.971Z,38.32
2023-01-17T16:42:51.048Z,38.36
2023-01-17T16:45:18.584Z,38.52
2023-01-17T16:50:15.347Z,38.32
2023-01-17T16:52:42.515Z,38.31
2023-01-17T16:55:13.842Z,38.44
2023-01-17T16:57:41.864Z,38.43
2023-01-17T17:00:10.698Z,38.35
2023-01-17T17:02:39.019Z,38.38
2023-01-17T17:05:07.412Z,38.41
2023-01-17T17:07:36.727Z,38.21
2023-01-17T17:10:03.759Z,38.41
2023-01-17T17:12:30.317Z,38.24
2023-01-17T17:14:56.857Z,38.21
2023-01-17T17:17:23.939Z,38.17
2023-01-17T17:19:50.440Z,38.20
2023-01-17T17:22:17.016Z,38.26
2023-01-17T17:24:43.583Z,38.24
2023-01-17T17:27:10.192Z,38.20
2023-01-17T17:29:37.042Z,38.23
2023-01-17T17:32:03.691Z,38.20
2023-01-17T17:34:34.193Z,38.44
2023-01-17T17:37:02.309Z,38.28
2023-01-17T17:39:30.308Z,38.13
2023-01-17T17:41:57.253Z,38.29
2023-01-17T17:44:23.781Z,38.18
2023-01-17T17:46:51.394Z,38.15
2023-01-17T17:49:18.321Z,38.08
2023-01-17T17:51:44.895Z,38.22
2023-01-17T17:54:13.172Z,38.15
2023-01-17T17:56:40.457Z,38.18
2023-01-17T17:59:09.000Z,38.15
2023-01-17T18:01:38.274Z,38.03
2023-01-17T18:04:07.413Z,38.01
2023-01-17T18:06:34.949Z,38.16
2023-01-17T18:09:02.195Z,37.90
2023-01-17T18:11:29.224Z,38.03
2023-01-17T18:13:58.839Z,38.02
2023-01-17T18:16:26.899Z,37.96
2023-01-17T18:18:56.105Z,37.89
2023-01-17T18:21:28.913Z,37.79
2023-01-17T18:24:00.290Z,37.79
2023-01-17T18:26:28.200Z,37.83
2023-01-17T18:28:56.431Z,37.82
2023-01-17T18:31:29.850Z,37.80
2023-01-17T18:33:59.329Z,37.85
2023-01-17T18:36:28.733Z,37.79
2023-01-17T18:38:55.242Z,37.70
2023-01-17T18:41:24.529Z,37.59
2023-01-17T18:43:51.632Z,37.64
2023-01-17T18:46:19.919Z,37.70
2023-01-17T18:48:47.190Z,37.31
2023-01-17T18:51:16.149Z,37.42
2023-01-17T18:53:45.057Z,37.50
2023-01-17T18:56:13.946Z,37.62
2023-01-17T18:58:45.256Z,37.29
2023-01-17T19:01:13.385Z,37.34
2023-01-17T19:03:42.103Z,37.31
2023-01-17T19:06:14.563Z,37.42
2023-01-17T19:08:42.063Z,37.23
2023-01-17T19:11:09.308Z,37.36
2023-01-17T19:13:37.337Z,37.33
2023-01-17T19:16:06.956Z,37.27
2023-01-17T19:18:34.297Z,37.16
2023-01-17T19:21:16.366Z,36.45
2023-01-17T19:23:43.565Z,36.69
2023-01-17T19:26:11.535Z,36.69
2023-01-17T19:28:42.802Z,36.78
2023-01-17T19:31:13.004Z,36.70
2023-01-17T19:33:42.188Z,36.77
2023-01-17T19:36:11.849Z,36.87
2023-01-17T19:38:38.603Z,36.64
2023-01-17T19:41:09.034Z,36.62
2023-01-17T19:43:35.977Z,36.56
2023-01-17T19:46:02.627Z,36.67
2023-01-17T19:48:29.429Z,36.64
2023-01-17T19:50:56.160Z,36.73
2023-01-17T19:53:24.116Z,36.76
2023-01-17T19:55:50.639Z,36.59
2023-01-17T19:58:17.247Z,36.64
2023-01-17T20:00:46.764Z,36.62
2023-01-17T20:03:13.535Z,36.46
2023-01-17T20:05:40.219Z,36.62
2023-01-17T20:08:06.806Z,36.51
2023-01-17T20:10:33.327Z,36.60
2023-01-17T20:12:59.906Z,36.49
2023-01-17T20:15:26.544Z,36.68
2023-01-17T20:17:53.346Z,36.57
2023-01-17T20:20:20.058Z,36.35
2023-01-17T20:22:46.657Z,36.44
2023-01-17T20:25:13.152Z,36.47
2023-01-17T20:27:44.418Z,36.41
2023-01-17T20:30:20.053Z,36.41
2023-01-17T20:32:47.132Z,36.58
2023-01-17T20:35:13.709Z,36.67
2023-01-17T20:37:40.183Z,36.54
2023-01-17T20:40:07.257Z,36.55
2023-01-17T20:42:36.592Z,36.73
2023-01-17T20:45:04.241Z,36.89
2023-01-17T20:47:30.920Z,36.70
2023-01-17T20:49:57.565Z,36.62
2023-01-17T20:52:24.143Z,36.67
2023-01-17T20:54:51.753Z,36.96
2023-01-17T20:57:18.289Z,36.92
2023-01-17T20:59:45.722Z,36.79
2023-01-17T21:02:12.601Z,36.86
2023-01-17T21:04:39.209Z,36.87
2023-01-17T21:07:05.698Z,36.81
2023-01-17T21:09:32.177Z,36.86
2023-01-17T21:12:01.230Z,36.78
2023-01-17T21:14:29.162Z,36.97
2023-01-17T21:16:56.011Z,37.01
2023-01-17T21:19:24.665Z,36.91
2023-01-17T21:21:51.491Z,37.10
2023-01-17T21:24:19.542Z,37.30
2023-01-17T21:26:46.801Z,37.31
2023-01-17T21:29:16.046Z,37.13
2023-01-17T21:31:42.919Z,37.02
2023-01-17T21:34:11.558Z,37.24
2023-01-17T21:36:39.999Z,37.07
2023-01-17T21:39:11.749Z,37.08
2023-01-17T21:41:40.591Z,37.03
2023-01-17T21:44:12.800Z,37.04
2023-01-17T21:46:40.939Z,36.90
2023-01-17T21:49:10.676Z,36.90
2023-01-17T21:51:53.910Z,36.75
2023-01-17T21:54:46.122Z,36.68
2023-01-17T21:57:39.623Z,36.71
2023-01-17T22:00:12.210Z,36.51
2023-01-17T22:02:39.913Z,36.57
2023-01-17T22:05:08.448Z,36.38
2023-01-17T22:07:35.494Z,36.47
2023-01-17T22:10:02.076Z,36.35
2023-01-17T22:12:28.698Z,36.21
2023-01-17T22:14:55.308Z,36.18
2023-01-17T22:17:22.434Z,36.11
2023-01-17T22:19:49.056Z,36.06
2023-01-17T22:22:15.663Z,36.03
2023-01-17T22:24:42.174Z,36.03
2023-01-17T22:27:09.901Z,36.13
2023-01-17T22:29:37.602Z,35.81
2023-01-17T22:32:04.643Z,35.83
2023-01-17T22:34:31.186Z,35.83
2023-01-17T22:36:57.736Z,35.79
2023-01-17T22:39:24.294Z,35.79
2023-01-17T22:41:50.821Z,35.59
2023-01-17T22:44:17.993Z,35.46
2023-01-17T22:46:44.600Z,35.45
2023-01-17T22:49:13.275Z,35.51
2023-01-17T22:51:39.767Z,35.58
2023-01-17T22:54:06.316Z,35.56
2023-01-17T22:56:33.527Z,35.45
2023-01-17T22:59:01.174Z,35.29
2023-01-17T23:01:32.785Z,35.28
2023-01-17T23:04:02.923Z,35.46
2023-01-17T23:06:34.911Z,35.16
2023-01-17T23:09:05.489Z,35.33
2023-01-17T23:11:39.003Z,35.07
2023-01-17T23:14:11.566Z,35.10
2023-01-17T23:16:59.309Z,35.25
2023-01-17T23:19:29.291Z,35.11
2023-01-17T23:22:17.940Z,35.25
2023-01-17T23:24:50.745Z,35.02
2023-01-17T23:28:14.353Z,35.11
2023-01-17T23:30:41.454Z,34.97
2023-01-17T23:33:11.194Z,35.08
2023-01-17T23:35:42.133Z,35.05
2023-01-17T23:38:25.938Z,35.09
2023-01-17T23:41:12.569Z,34.90
2023-01-17T23:43:39.095Z,35.02
2023-01-17T23:46:05.775Z,34.89
2023-01-17T23:48:32.383Z,34.89
2023-01-17T23:51:02.293Z,34.78
2023-01-17T23:53:29.026Z,34.93
2023-01-17T23:55:56.945Z,34.89
2023-01-17T23:58:25.512Z,34.85
